Ginga — JJ4054 — position and weather

sailwx.info

Track history (hours):
 
Tides and Currents Weather Stations Pressure Air Temp Water Temp Dewpoint Dewpoint Depression Visibility Wind Speed Wind Dir Waves Ship Positions

Ginga

Last reported at 2017-Sep-19 21:21 UTC. Time now 2017-Sep-20 02:03 UTC.
Position N 34°38' E 135°03'.

Length 28 m; draft 1.6 m.

Type: Other ship. MMSI: 431301704.

Date/timePositionNaut miles runAvg speedWind from/ knotsBaromVisibWave heightAir tempDewpointWater temp
2017-Sep-19 21:21N 34°38' E 135°03'412.3
2017-Sep-19 21:00N 34°37' E 134°58'4 8.9
2017-Sep-19 20:30N 34°36' E 135°03'3 5.9
2017-Sep-19 20:00N 34°35' E 135°06'3 5.8
2017-Sep-19 19:30N 34°33' E 135°08'611.8
2017-Sep-19 18:59N 34°27' E 135°05'1710.6
2017-Sep-19 17:22N 34°10' E 135°00'1310.4
2017-Sep-19 16:08N 34°23' E 135°01'215.6
2017-Sep-19 16:00N 34°25' E 135°01'815.3
2017-Sep-19 15:30N 34°31' E 135°06'713.8
2017-Sep-19 15:00N 34°38' E 135°10'1 1.5
2017-Sep-19 14:30N 34°38' E 135°11'3 5.0
2017-Sep-19 14:01N 34°40' E 135°12'0 0.4
2017-Sep-19 13:31N 34°41' E 135°11'2 4.5
2017-Sep-19 13:01N 34°39' E 135°09'0 0.0
2017-Sep-18 23:27N 34°39' E 135°09'511.1
2017-Sep-18 23:00N 34°37' E 135°04'4 7.0
2017-Sep-18 22:26N 34°38' E 134°59'511.1
2017-Sep-18 22:00N 34°36' E 135°04'1 1.8
2017-Sep-18 21:30N 34°36' E 135°05'2 0.9
2017-Sep-18 18:40N 34°37' E 135°03'315.7
2017-Sep-18 18:29N 34°38' E 134°60'0 0.7
2017-Sep-18 17:55N 34°38' E 135°00'3 6.3
2017-Sep-18 17:30N 34°36' E 135°03'3 5.5
2017-Sep-18 17:01N 34°35' E 135°06'1 2.2
2017-Sep-18 16:30N 34°36' E 135°06'3 5.3
2017-Sep-18 16:00N 34°38' E 135°03'0 0.1
2017-Sep-18 13:02N 34°37' E 135°03'115.5
2017-Sep-18 13:00N 34°38' E 135°02'3 5.2
2017-Sep-18 12:29N 34°38' E 134°59'511.1
2017-Sep-18 12:00N 34°35' E 135°05'3 5.1
2017-Sep-18 11:30N 34°35' E 135°08'5 9.5
2017-Sep-18 11:00N 34°39' E 135°10'0 0.2
2017-Sep-18 10:30N 34°39' E 135°09'0 0.0
2017-Sep-18 00:28N 34°39' E 135°09'611.9
2017-Sep-18 00:00N 34°36' E 135°04'4 7.7
2017-Sep-17 23:29N 34°38' E 134°59'611.8
2017-Sep-17 22:59N 34°35' E 135°06'2 4.1
2017-Sep-17 22:30N 34°35' E 135°08'4 8.2
2017-Sep-17 22:00N 34°38' E 135°11'4 8.6
2017-Sep-17 21:30N 34°42' E 135°13'0 0.0
2017-Sep-17 00:50N 34°42' E 135°13'0 0.0
2017-Sep-17 00:30N 34°42' E 135°13'3 6.2
2017-Sep-17 00:00N 34°39' E 135°11'2 0.1
2017-Sep-16 03:30N 34°39' E 135°09'612.4
2017-Sep-16 03:00N 34°36' E 135°03'5 7.7
2017-Sep-16 02:19N 34°37' E 134°57'413.2
2017-Sep-16 02:00N 34°38' E 135°02'1 0.1
2017-Sep-15 18:09N 34°38' E 135°03'312.3
2017-Sep-15 17:57N 34°38' E 135°00'1 2.1
2017-Sep-15 17:26N 34°37' E 135°01'510.8
2017-Sep-15 16:59N 34°35' E 135°06'4 7.6
2017-Sep-15 16:30N 34°37' E 135°09'2 3.3
2017-Sep-15 16:00N 34°39' E 135°09'0 0.0
2017-Sep-14 14:18N 34°39' E 135°09'311.2
2017-Sep-14 14:00N 34°36' E 135°09'917.1
2017-Sep-14 13:30N 34°27' E 135°06'2 0.8
2017-Sep-14 11:39N 34°26' E 135°05'316.3
2017-Sep-14 11:29N 34°28' E 135°07'815.7
2017-Sep-14 11:00N 34°34' E 135°13'5 9.8
2017-Sep-14 10:30N 34°38' E 135°16'3 6.2
2017-Sep-14 10:01N 34°39' E 135°12'2 4.5
2017-Sep-14 09:30N 34°39' E 135°09'0 0.0
2017-Sep-14 06:30N 34°39' E 135°09'610.7
2017-Sep-14 05:56N 34°35' E 135°04'4 3.8
2017-Sep-14 04:50N 34°38' E 134°60'3 0.3
2017-Sep-13 20:09N 34°38' E 135°03'314.2
2017-Sep-13 19:57N 34°38' E 134°60'1 2.5
2017-Sep-13 19:24N 34°37' E 135°01'410.9
2017-Sep-13 19:00N 34°35' E 135°06'5 9.8
2017-Sep-13 18:30N 34°34' E 135°12'1 2.3
2017-Sep-13 18:01N 34°34' E 135°13'611.1
2017-Sep-13 17:31N 34°39' E 135°10'0 0.9
2017-Sep-13 17:01N 34°39' E 135°09'0 0.0
2017-Sep-12 23:06N 34°39' E 135°09'0 4.6
2017-Sep-12 23:00N 34°39' E 135°10'916.0
2017-Sep-12 22:28N 34°38' E 134°60'1 2.8
2017-Sep-12 22:00N 34°37' E 135°01'4 7.3
2017-Sep-12 21:30N 34°35' E 135°05'2 3.9
2017-Sep-12 21:00N 34°33' E 135°04'2 4.1
2017-Sep-12 20:30N 34°34' E 135°02'1 1.7
2017-Sep-12 19:54N 34°35' E 135°02'3 7.8
2017-Sep-12 19:30N 34°37' E 134°59'2 4.1
2017-Sep-12 18:59N 34°37' E 135°01'510.3
2017-Sep-12 18:31N 34°35' E 135°06'3 5.9
2017-Sep-12 18:00N 34°37' E 135°09'2 3.7
2017-Sep-12 17:30N 34°39' E 135°09'0 0.0
2017-Sep-12 07:22N 34°39' E 135°10'616.9
2017-Sep-12 07:00N 34°34' E 135°07'9 4.8
2017-Sep-12 05:10N 34°25' E 135°05'214.7
2017-Sep-12 05:00N 34°26' E 135°07'815.4
2017-Sep-12 04:30N 34°31' E 135°15'712.9
2017-Sep-12 03:58N 34°33' E 135°22'1 2.3
2017-Sep-12 03:23N 34°33' E 135°24'2 3.6
2017-Sep-12 02:47N 34°34' E 135°21'413.6
2017-Sep-12 02:30N 34°36' E 135°17'713.2
2017-Sep-12 02:00N 34°39' E 135°10'0 0.9
2017-Sep-12 01:30N 34°39' E 135°09'0 0.0
2017-Sep-12 01:00N 34°39' E 135°09'0 0.0
2017-Sep-11 02:36N 34°39' E 135°09'0 5.2
2017-Sep-11 02:30N 34°39' E 135°10'917.1
2017-Sep-11 02:00N 34°35' E 135°20'4 7.0
2017-Sep-11 01:25N 34°34' E 135°24'3 5.9
2017-Sep-11 00:58N 34°33' E 135°21'5 9.0
2017-Sep-11 00:25N 34°32' E 135°15'813.9
2017-Sep-10 23:50N 34°26' E 135°08'514.8
2017-Sep-10 23:30N 34°23' E 135°04'1312.2
2017-Sep-10 22:26N 34°10' E 134°59'12 9.9
2017-Sep-10 21:13N 34°22' E 135°00'315.9
2017-Sep-10 21:00N 34°25' E 135°02'815.8
2017-Sep-10 20:30N 34°32' E 135°06'714.7
2017-Sep-10 20:00N 34°39' E 135°10'0 0.9
2017-Sep-10 19:31N 34°39' E 135°09'  
Track history (hours):
 
Tides and Currents Weather Stations Pressure Air Temp Water Temp Dewpoint Dewpoint Depression Visibility Wind Speed Wind Dir Waves Ship Positions

Ginga

Last reported at 2017-Sep-19 21:21 UTC. Time now 2017-Sep-20 02:03 UTC.
Position N 34°38' E 135°03'.

Length 28 m; draft 1.6 m.

Type: Other ship. MMSI: 431301704.

Date/timePositionNaut miles runAvg speedWind from/ knotsBaromVisibWave heightAir tempDewpointWater temp
2017-Sep-19 21:21N 34°38' E 135°03'412.3
2017-Sep-19 21:00N 34°37' E 134°58'4 8.9
2017-Sep-19 20:30N 34°36' E 135°03'3 5.9
2017-Sep-19 20:00N 34°35' E 135°06'3 5.8
2017-Sep-19 19:30N 34°33' E 135°08'611.8
2017-Sep-19 18:59N 34°27' E 135°05'1710.6
2017-Sep-19 17:22N 34°10' E 135°00'1310.4
2017-Sep-19 16:08N 34°23' E 135°01'215.6
2017-Sep-19 16:00N 34°25' E 135°01'815.3
2017-Sep-19 15:30N 34°31' E 135°06'713.8
2017-Sep-19 15:00N 34°38' E 135°10'1 1.5
2017-Sep-19 14:30N 34°38' E 135°11'3 5.0
2017-Sep-19 14:01N 34°40' E 135°12'0 0.4
2017-Sep-19 13:31N 34°41' E 135°11'2 4.5
2017-Sep-19 13:01N 34°39' E 135°09'0 0.0
2017-Sep-18 23:27N 34°39' E 135°09'511.1
2017-Sep-18 23:00N 34°37' E 135°04'4 7.0
2017-Sep-18 22:26N 34°38' E 134°59'511.1
2017-Sep-18 22:00N 34°36' E 135°04'1 1.8
2017-Sep-18 21:30N 34°36' E 135°05'2 0.9
2017-Sep-18 18:40N 34°37' E 135°03'315.7
2017-Sep-18 18:29N 34°38' E 134°60'0 0.7
2017-Sep-18 17:55N 34°38' E 135°00'3 6.3
2017-Sep-18 17:30N 34°36' E 135°03'3 5.5
2017-Sep-18 17:01N 34°35' E 135°06'1 2.2
2017-Sep-18 16:30N 34°36' E 135°06'3 5.3
2017-Sep-18 16:00N 34°38' E 135°03'0 0.1
2017-Sep-18 13:02N 34°37' E 135°03'115.5
2017-Sep-18 13:00N 34°38' E 135°02'3 5.2
2017-Sep-18 12:29N 34°38' E 134°59'511.1
2017-Sep-18 12:00N 34°35' E 135°05'3 5.1
2017-Sep-18 11:30N 34°35' E 135°08'5 9.5
2017-Sep-18 11:00N 34°39' E 135°10'0 0.2
2017-Sep-18 10:30N 34°39' E 135°09'0 0.0
2017-Sep-18 00:28N 34°39' E 135°09'611.9
2017-Sep-18 00:00N 34°36' E 135°04'4 7.7
2017-Sep-17 23:29N 34°38' E 134°59'611.8
2017-Sep-17 22:59N 34°35' E 135°06'2 4.1
2017-Sep-17 22:30N 34°35' E 135°08'4 8.2
2017-Sep-17 22:00N 34°38' E 135°11'4 8.6
2017-Sep-17 21:30N 34°42' E 135°13'0 0.0
2017-Sep-17 00:50N 34°42' E 135°13'0 0.0
2017-Sep-17 00:30N 34°42' E 135°13'3 6.2
2017-Sep-17 00:00N 34°39' E 135°11'2 0.1
2017-Sep-16 03:30N 34°39' E 135°09'612.4
2017-Sep-16 03:00N 34°36' E 135°03'5 7.7
2017-Sep-16 02:19N 34°37' E 134°57'413.2
2017-Sep-16 02:00N 34°38' E 135°02'1 0.1
2017-Sep-15 18:09N 34°38' E 135°03'312.3
2017-Sep-15 17:57N 34°38' E 135°00'1 2.1
2017-Sep-15 17:26N 34°37' E 135°01'510.8
2017-Sep-15 16:59N 34°35' E 135°06'4 7.6
2017-Sep-15 16:30N 34°37' E 135°09'2 3.3
2017-Sep-15 16:00N 34°39' E 135°09'0 0.0
2017-Sep-14 14:18N 34°39' E 135°09'311.2
2017-Sep-14 14:00N 34°36' E 135°09'917.1
2017-Sep-14 13:30N 34°27' E 135°06'2 0.8
2017-Sep-14 11:39N 34°26' E 135°05'316.3
2017-Sep-14 11:29N 34°28' E 135°07'815.7
2017-Sep-14 11:00N 34°34' E 135°13'5 9.8
2017-Sep-14 10:30N 34°38' E 135°16'3 6.2
2017-Sep-14 10:01N 34°39' E 135°12'2 4.5
2017-Sep-14 09:30N 34°39' E 135°09'0 0.0
2017-Sep-14 06:30N 34°39' E 135°09'610.7
2017-Sep-14 05:56N 34°35' E 135°04'4 3.8
2017-Sep-14 04:50N 34°38' E 134°60'3 0.3
2017-Sep-13 20:09N 34°38' E 135°03'314.2
2017-Sep-13 19:57N 34°38' E 134°60'1 2.5
2017-Sep-13 19:24N 34°37' E 135°01'410.9
2017-Sep-13 19:00N 34°35' E 135°06'5 9.8
2017-Sep-13 18:30N 34°34' E 135°12'1 2.3
2017-Sep-13 18:01N 34°34' E 135°13'611.1
2017-Sep-13 17:31N 34°39' E 135°10'0 0.9
2017-Sep-13 17:01N 34°39' E 135°09'0 0.0
2017-Sep-12 23:06N 34°39' E 135°09'0 4.6
2017-Sep-12 23:00N 34°39' E 135°10'916.0
2017-Sep-12 22:28N 34°38' E 134°60'1 2.8
2017-Sep-12 22:00N 34°37' E 135°01'4 7.3
2017-Sep-12 21:30N 34°35' E 135°05'2 3.9
2017-Sep-12 21:00N 34°33' E 135°04'2 4.1
2017-Sep-12 20:30N 34°34' E 135°02'1 1.7
2017-Sep-12 19:54N 34°35' E 135°02'3 7.8
2017-Sep-12 19:30N 34°37' E 134°59'2 4.1
2017-Sep-12 18:59N 34°37' E 135°01'510.3
2017-Sep-12 18:31N 34°35' E 135°06'3 5.9
2017-Sep-12 18:00N 34°37' E 135°09'2 3.7
2017-Sep-12 17:30N 34°39' E 135°09'0 0.0
2017-Sep-12 07:22N 34°39' E 135°10'616.9
2017-Sep-12 07:00N 34°34' E 135°07'9 4.8
2017-Sep-12 05:10N 34°25' E 135°05'214.7
2017-Sep-12 05:00N 34°26' E 135°07'815.4
2017-Sep-12 04:30N 34°31' E 135°15'712.9
2017-Sep-12 03:58N 34°33' E 135°22'1 2.3
2017-Sep-12 03:23N 34°33' E 135°24'2 3.6
2017-Sep-12 02:47N 34°34' E 135°21'413.6
2017-Sep-12 02:30N 34°36' E 135°17'713.2
2017-Sep-12 02:00N 34°39' E 135°10'0 0.9
2017-Sep-12 01:30N 34°39' E 135°09'0 0.0
2017-Sep-12 01:00N 34°39' E 135°09'0 0.0
2017-Sep-11 02:36N 34°39' E 135°09'0 5.2
2017-Sep-11 02:30N 34°39' E 135°10'917.1
2017-Sep-11 02:00N 34°35' E 135°20'4 7.0
2017-Sep-11 01:25N 34°34' E 135°24'3 5.9
2017-Sep-11 00:58N 34°33' E 135°21'5 9.0
2017-Sep-11 00:25N 34°32' E 135°15'813.9
2017-Sep-10 23:50N 34°26' E 135°08'514.8
2017-Sep-10 23:30N 34°23' E 135°04'1312.2
2017-Sep-10 22:26N 34°10' E 134°59'12 9.9
2017-Sep-10 21:13N 34°22' E 135°00'315.9
2017-Sep-10 21:00N 34°25' E 135°02'815.8
2017-Sep-10 20:30N 34°32' E 135°06'714.7
2017-Sep-10 20:00N 34°39' E 135°10'0 0.9
2017-Sep-10 19:31N 34°39' E 135°09'  

Dump ship's entire track history